createdAt,value
2016-08-31T00:00:44.031Z,99.99
2016-08-31T00:01:44.294Z,99.99
2016-08-31T00:02:44.178Z,99.99
2016-08-31T00:03:44.045Z,99.99
2016-08-31T00:04:44.021Z,99.99
2016-08-31T00:05:44.037Z,99.99
2016-08-31T00:06:44.029Z,99.99
2016-08-31T00:07:44.024Z,99.99
2016-08-31T00:08:44.042Z,99.99
2016-08-31T00:09:44.054Z,99.99
2016-08-31T00:10:44.043Z,99.99
2016-08-31T00:11:44.037Z,99.99
2016-08-31T00:12:44.040Z,99.99
2016-08-31T00:13:44.047Z,99.99
2016-08-31T00:14:44.038Z,99.99
2016-08-31T00:15:44.040Z,99.99
2016-08-31T00:16:44.039Z,99.99
2016-08-31T00:17:44.055Z,99.99
2016-08-31T00:18:44.039Z,99.99
2016-08-31T00:19:44.029Z,99.99
2016-08-31T00:20:44.034Z,99.99
2016-08-31T00:21:44.052Z,99.99
2016-08-31T00:22:44.051Z,99.99
2016-08-31T00:23:44.045Z,99.99
2016-08-31T00:24:44.057Z,99.99
2016-08-31T00:25:44.077Z,99.99
2016-08-31T00:26:44.071Z,99.99
2016-08-31T00:27:44.045Z,99.99
2016-08-31T00:28:44.056Z,99.99
2016-08-31T00:29:44.081Z,99.99
2016-08-31T00:30:44.040Z,99.99
2016-08-31T00:31:44.043Z,99.99
2016-08-31T00:32:44.056Z,99.99
2016-08-31T00:33:44.043Z,99.99
2016-08-31T00:34:44.061Z,99.99
2016-08-31T00:35:44.040Z,99.99
2016-08-31T00:36:44.059Z,99.99
2016-08-31T00:37:44.062Z,99.99
2016-08-31T00:38:44.056Z,99.99
2016-08-31T00:39:44.053Z,99.99
2016-08-31T00:40:44.106Z,99.99
2016-08-31T00:41:44.085Z,99.99
2016-08-31T00:42:44.132Z,99.99
2016-08-31T00:43:44.100Z,99.99
2016-08-31T00:44:44.085Z,99.99
2016-08-31T00:45:44.086Z,99.99
2016-08-31T00:46:44.121Z,99.99
2016-08-31T00:47:44.066Z,99.99
2016-08-31T00:48:44.078Z,99.99
2016-08-31T00:49:44.123Z,99.99
2016-08-31T00:50:44.098Z,99.99
2016-08-31T00:51:44.076Z,99.99
2016-08-31T00:52:44.086Z,99.99
2016-08-31T00:53:44.090Z,99.99
2016-08-31T00:54:44.059Z,99.99
2016-08-31T00:55:44.130Z,99.99
2016-08-31T00:56:44.084Z,99.99
2016-08-31T00:57:44.076Z,99.99
2016-08-31T00:58:44.251Z,99.99
2016-08-31T00:59:44.087Z,99.99
2016-08-31T01:00:44.086Z,99.99
2016-08-31T01:01:44.075Z,99.99
2016-08-31T01:02:44.068Z,99.99
2016-08-31T01:03:44.078Z,99.99
2016-08-31T01:04:44.108Z,99.99
2016-08-31T01:05:44.102Z,99.99
2016-08-31T01:06:44.079Z,99.99
2016-08-31T01:07:44.072Z,99.99
2016-08-31T01:08:44.080Z,99.99
2016-08-31T01:09:44.086Z,99.99
2016-08-31T01:10:44.251Z,99.99
2016-08-31T01:11:44.081Z,99.99
2016-08-31T01:12:44.087Z,99.99
2016-08-31T01:13:44.164Z,99.99
2016-08-31T01:14:44.105Z,99.99
2016-08-31T01:15:44.097Z,99.99
2016-08-31T01:16:44.107Z,99.99
2016-08-31T01:17:44.088Z,99.99
2016-08-31T01:18:44.088Z,99.99
2016-08-31T01:19:44.093Z,99.99
2016-08-31T01:20:44.104Z,99.99
2016-08-31T01:21:44.108Z,99.99
2016-08-31T01:22:44.100Z,99.99
2016-08-31T01:23:44.119Z,99.99
2016-08-31T01:24:44.126Z,99.99
2016-08-31T01:25:44.345Z,99.99
2016-08-31T01:26:44.086Z,99.99
2016-08-31T01:27:44.084Z,99.99
2016-08-31T01:28:44.103Z,99.99
2016-08-31T01:29:44.088Z,99.99
2016-08-31T01:30:44.117Z,99.99
2016-08-31T01:31:44.298Z,99.99
2016-08-31T01:32:44.099Z,99.99
2016-08-31T01:33:44.098Z,99.99
2016-08-31T01:34:44.125Z,99.99
2016-08-31T01:35:44.121Z,99.99
2016-08-31T01:36:44.104Z,99.99
2016-08-31T01:37:44.167Z,99.99
2016-08-31T01:38:44.105Z,99.99
2016-08-31T01:39:44.093Z,99.99
2016-08-31T01:40:44.166Z,99.99
2016-08-31T01:41:44.152Z,99.99
2016-08-31T01:42:44.107Z,99.99
2016-08-31T01:43:44.123Z,99.99
2016-08-31T01:44:44.128Z,99.99
2016-08-31T01:45:44.105Z,99.99
2016-08-31T01:46:44.120Z,99.99
2016-08-31T01:47:44.135Z,99.99
2016-08-31T01:48:44.142Z,99.99
2016-08-31T01:49:44.349Z,99.99
2016-08-31T01:50:44.117Z,99.99
2016-08-31T01:51:44.134Z,99.99
2016-08-31T01:52:44.240Z,99.99
2016-08-31T01:53:44.117Z,99.99
2016-08-31T01:54:44.124Z,99.99
2016-08-31T01:55:44.365Z,99.99
2016-08-31T01:56:44.120Z,99.99
2016-08-31T01:57:44.121Z,99.99
2016-08-31T01:58:44.180Z,99.99
2016-08-31T01:59:44.140Z,99.99
2016-08-31T02:00:44.135Z,99.99
2016-08-31T02:01:44.141Z,99.99
2016-08-31T02:02:44.139Z,99.99
2016-08-31T02:03:44.139Z,99.99
2016-08-31T02:04:44.174Z,99.99
2016-08-31T02:05:44.135Z,99.99
2016-08-31T02:06:44.132Z,99.99
2016-08-31T02:07:44.448Z,99.99
2016-08-31T02:08:44.122Z,99.99
2016-08-31T02:09:44.122Z,99.99
2016-08-31T02:10:44.166Z,99.99
2016-08-31T02:11:44.136Z,99.99
2016-08-31T02:12:44.116Z,99.99
2016-08-31T02:13:44.779Z,99.99
2016-08-31T02:14:44.126Z,99.99
2016-08-31T02:15:44.134Z,99.99
2016-08-31T02:16:44.639Z,99.99
2016-08-31T02:17:44.121Z,99.99
2016-08-31T02:18:44.139Z,99.99
2016-08-31T02:19:44.136Z,99.99
2016-08-31T02:20:44.126Z,99.99
2016-08-31T02:21:44.131Z,99.99
2016-08-31T02:22:44.359Z,99.99
2016-08-31T02:23:44.134Z,99.99
2016-08-31T02:24:44.166Z,99.99
2016-08-31T02:25:44.157Z,99.99
2016-08-31T02:26:44.182Z,99.99
2016-08-31T02:27:44.156Z,99.99
2016-08-31T02:28:44.135Z,99.99
2016-08-31T02:29:44.212Z,99.99
2016-08-31T02:30:44.137Z,99.99
2016-08-31T02:31:44.156Z,99.99
2016-08-31T02:32:44.164Z,99.99
2016-08-31T02:33:44.136Z,99.99
2016-08-31T02:34:44.162Z,99.99
2016-08-31T02:35:44.149Z,99.99
2016-08-31T02:36:44.142Z,99.99
2016-08-31T02:37:44.150Z,99.99
2016-08-31T02:38:44.156Z,99.99
2016-08-31T02:39:44.164Z,99.99
2016-08-31T02:40:44.169Z,99.99
2016-08-31T02:41:44.213Z,99.99
2016-08-31T02:42:44.168Z,99.99
2016-08-31T02:43:44.579Z,99.99
2016-08-31T02:44:44.167Z,99.99
2016-08-31T02:45:44.183Z,99.99
2016-08-31T02:46:44.167Z,99.99
2016-08-31T02:47:44.154Z,99.99
2016-08-31T02:48:44.155Z,99.99
2016-08-31T02:49:44.739Z,99.99
2016-08-31T02:50:44.173Z,99.99
2016-08-31T02:51:44.156Z,99.99
2016-08-31T02:52:44.163Z,99.99
2016-08-31T02:53:44.169Z,99.99
2016-08-31T02:54:44.170Z,99.99
2016-08-31T02:55:44.488Z,99.99
2016-08-31T02:56:44.173Z,99.99
2016-08-31T02:57:44.175Z,99.99
2016-08-31T02:58:44.348Z,99.99
2016-08-31T02:59:44.182Z,99.99
2016-08-31T03:00:44.171Z,99.99
2016-08-31T03:01:44.389Z,99.99
2016-08-31T03:02:44.170Z,99.99
2016-08-31T03:03:44.172Z,99.99
2016-08-31T03:04:44.187Z,99.99
2016-08-31T03:05:44.171Z,99.99
2016-08-31T03:06:44.177Z,99.99
2016-08-31T03:07:44.405Z,99.99
2016-08-31T03:08:44.189Z,99.99
2016-08-31T03:09:44.169Z,99.99
2016-08-31T03:10:44.188Z,99.99
2016-08-31T03:11:44.182Z,99.99
2016-08-31T03:12:44.201Z,99.99
2016-08-31T03:13:44.179Z,99.99
2016-08-31T03:14:44.186Z,99.99
2016-08-31T03:15:44.200Z,99.99
2016-08-31T03:16:44.261Z,99.99
2016-08-31T03:17:44.207Z,99.99
2016-08-31T03:18:44.170Z,99.99
2016-08-31T03:19:44.527Z,99.99
2016-08-31T03:20:44.190Z,99.99
2016-08-31T03:21:44.191Z,99.99
2016-08-31T03:22:44.187Z,99.99
2016-08-31T03:23:44.194Z,99.99
2016-08-31T03:24:44.201Z,99.99
2016-08-31T03:25:44.551Z,99.99
2016-08-31T03:26:44.199Z,99.99
2016-08-31T03:27:44.206Z,99.99
2016-08-31T03:28:44.255Z,99.99
2016-08-31T03:29:44.205Z,99.99
2016-08-31T03:30:44.200Z,99.99
2016-08-31T03:31:44.307Z,99.99
2016-08-31T03:32:44.201Z,99.99
2016-08-31T03:33:44.216Z,99.99
2016-08-31T03:34:44.205Z,99.99
2016-08-31T03:35:44.228Z,99.99
2016-08-31T03:36:44.221Z,99.99
2016-08-31T03:37:44.199Z,99.99
2016-08-31T03:38:44.204Z,99.99
2016-08-31T03:39:44.197Z,99.99
2016-08-31T03:40:44.201Z,99.99
2016-08-31T03:41:44.216Z,99.99
2016-08-31T03:42:44.216Z,99.99
2016-08-31T03:43:44.221Z,99.99
2016-08-31T03:44:44.212Z,99.99
2016-08-31T03:45:44.205Z,99.99
2016-08-31T03:46:44.246Z,99.99
2016-08-31T03:47:44.225Z,99.99
2016-08-31T03:48:44.199Z,99.99
2016-08-31T03:49:44.218Z,99.99
2016-08-31T03:50:44.211Z,99.99
2016-08-31T03:51:44.199Z,99.99
2016-08-31T03:52:44.232Z,99.99
2016-08-31T03:53:44.232Z,99.99
2016-08-31T03:54:44.216Z,99.99
2016-08-31T03:55:44.229Z,99.99
2016-08-31T03:56:44.228Z,99.99
2016-08-31T03:57:44.247Z,99.99
2016-08-31T03:58:44.207Z,99.99
2016-08-31T03:59:44.214Z,99.99
2016-08-31T04:00:44.295Z,99.99
2016-08-31T04:01:44.231Z,99.99
2016-08-31T04:02:44.229Z,99.99
2016-08-31T04:03:44.231Z,99.99
2016-08-31T04:04:44.232Z,99.99
2016-08-31T04:05:44.217Z,99.99
2016-08-31T04:06:44.540Z,99.99
2016-08-31T04:07:44.223Z,99.99
2016-08-31T04:08:44.230Z,99.99
2016-08-31T04:09:44.236Z,99.99
2016-08-31T04:10:44.230Z,99.99
2016-08-31T04:11:44.251Z,99.99
2016-08-31T04:12:44.230Z,99.99
2016-08-31T04:13:44.235Z,99.99
2016-08-31T04:14:44.241Z,99.99
2016-08-31T04:15:44.216Z,99.99
2016-08-31T04:16:44.242Z,99.99
2016-08-31T04:17:44.262Z,99.99
2016-08-31T04:18:44.237Z,99.99
2016-08-31T04:19:44.226Z,99.99
2016-08-31T04:20:44.232Z,99.99
2016-08-31T04:21:44.239Z,99.99
2016-08-31T04:22:44.230Z,99.99
2016-08-31T04:23:44.239Z,99.99
2016-08-31T04:24:44.232Z,99.99
2016-08-31T04:25:44.248Z,99.99
2016-08-31T04:26:44.277Z,99.99
2016-08-31T04:27:44.232Z,99.99
2016-08-31T04:28:44.290Z,99.99
2016-08-31T04:29:44.250Z,99.99
2016-08-31T04:30:44.247Z,99.99
2016-08-31T04:31:44.235Z,99.99
2016-08-31T04:32:44.234Z,99.99
2016-08-31T04:33:44.233Z,99.99
2016-08-31T04:34:44.293Z,99.99
2016-08-31T04:35:44.246Z,99.99
2016-08-31T04:36:44.243Z,99.99
2016-08-31T04:37:44.237Z,99.99
2016-08-31T04:38:44.229Z,99.99
2016-08-31T04:39:44.236Z,99.99
2016-08-31T04:40:44.242Z,99.99
2016-08-31T04:41:44.250Z,99.99
2016-08-31T04:42:44.283Z,99.99
2016-08-31T04:43:44.262Z,99.99
2016-08-31T04:44:44.270Z,99.99
2016-08-31T04:45:44.234Z,99.99
2016-08-31T04:46:44.267Z,99.99
2016-08-31T04:47:44.258Z,99.99
2016-08-31T04:48:44.251Z,99.99
2016-08-31T04:49:44.257Z,99.99
2016-08-31T04:50:44.234Z,99.99
2016-08-31T04:51:44.265Z,99.99
2016-08-31T04:52:44.339Z,99.99
2016-08-31T04:53:44.269Z,99.99
2016-08-31T04:54:44.245Z,99.99
2016-08-31T04:55:44.296Z,99.99
2016-08-31T04:56:44.259Z,99.99
2016-08-31T04:57:44.310Z,99.99
2016-08-31T04:58:45.210Z,99.99
2016-08-31T04:59:44.280Z,99.99
2016-08-31T05:00:44.281Z,99.99
2016-08-31T05:01:44.359Z,99.99
2016-08-31T05:02:44.462Z,99.99
2016-08-31T05:03:44.264Z,99.99
2016-08-31T05:04:44.375Z,99.99
2016-08-31T05:05:44.262Z,99.99
2016-08-31T05:06:44.270Z,99.99
2016-08-31T05:07:44.386Z,99.99
2016-08-31T05:08:44.250Z,99.99
2016-08-31T05:09:44.275Z,99.99
2016-08-31T05:10:44.282Z,99.99
2016-08-31T05:11:44.280Z,99.99
2016-08-31T05:12:44.263Z,99.99
2016-08-31T05:13:44.331Z,99.99
2016-08-31T05:14:44.282Z,99.99
2016-08-31T05:15:44.269Z,99.99
2016-08-31T05:16:44.295Z,99.99
2016-08-31T05:17:44.286Z,99.99
2016-08-31T05:18:44.262Z,99.99
2016-08-31T05:19:44.582Z,99.99
2016-08-31T05:20:44.290Z,99.99
2016-08-31T05:21:44.268Z,99.99
2016-08-31T05:22:44.340Z,99.99
2016-08-31T05:23:44.282Z,99.99
2016-08-31T05:24:44.289Z,99.99
2016-08-31T05:25:44.340Z,99.99
2016-08-31T05:26:44.281Z,99.99
2016-08-31T05:27:44.293Z,99.99
2016-08-31T05:28:45.333Z,99.99
2016-08-31T05:29:44.295Z,99.99
2016-08-31T05:30:44.282Z,99.99
2016-08-31T05:31:44.298Z,99.99
2016-08-31T05:32:44.287Z,99.99
2016-08-31T05:33:44.286Z,99.99
2016-08-31T05:34:44.301Z,99.99
2016-08-31T05:35:44.298Z,99.99
2016-08-31T05:36:44.294Z,99.99
2016-08-31T05:37:44.308Z,99.99
2016-08-31T05:38:44.295Z,99.99
2016-08-31T05:39:44.278Z,99.99
2016-08-31T05:40:44.313Z,99.99
2016-08-31T05:41:44.290Z,99.99
2016-08-31T05:42:44.297Z,99.99
2016-08-31T05:43:44.306Z,99.99
2016-08-31T05:44:44.311Z,99.99
2016-08-31T05:45:44.297Z,99.99
2016-08-31T05:46:44.316Z,99.99
2016-08-31T05:47:44.303Z,99.99
2016-08-31T05:48:44.314Z,99.99
2016-08-31T05:49:44.313Z,99.99
2016-08-31T05:50:44.313Z,99.99
2016-08-31T05:51:44.319Z,99.99
2016-08-31T05:52:44.314Z,99.99
2016-08-31T05:53:44.307Z,99.99
2016-08-31T05:54:44.314Z,99.99
2016-08-31T05:55:44.299Z,99.99
2016-08-31T05:56:44.318Z,99.99
2016-08-31T05:57:44.297Z,99.99
2016-08-31T05:58:44.316Z,99.99
2016-08-31T05:59:44.299Z,99.99
2016-08-31T06:00:44.317Z,99.99
2016-08-31T06:01:44.297Z,99.99
2016-08-31T06:02:44.318Z,99.99
2016-08-31T06:03:44.321Z,99.99
2016-08-31T06:04:44.314Z,99.99
2016-08-31T06:05:44.321Z,99.99
2016-08-31T06:06:44.313Z,99.99
2016-08-31T06:07:44.319Z,99.99
2016-08-31T06:08:44.330Z,99.99
2016-08-31T06:09:44.343Z,99.99
2016-08-31T06:10:44.311Z,99.99
2016-08-31T06:11:44.328Z,99.99
2016-08-31T06:12:44.355Z,99.99
2016-08-31T06:13:44.332Z,99.99
2016-08-31T06:14:44.323Z,99.99
2016-08-31T06:15:44.327Z,99.99
2016-08-31T06:16:44.348Z,99.99
2016-08-31T06:17:44.393Z,99.99
2016-08-31T06:18:44.363Z,99.99
2016-08-31T06:19:44.382Z,99.99
2016-08-31T06:20:44.326Z,99.99
2016-08-31T06:21:44.335Z,99.99
2016-08-31T06:22:44.352Z,99.99
2016-08-31T06:23:44.330Z,99.99
2016-08-31T06:24:45.318Z,99.99
2016-08-31T06:25:44.320Z,99.99
2016-08-31T06:26:44.350Z,99.99
2016-08-31T06:27:44.327Z,99.99
2016-08-31T06:28:44.334Z,99.99
2016-08-31T06:29:44.348Z,99.99
2016-08-31T06:30:44.346Z,99.99
2016-08-31T06:31:44.330Z,99.99
2016-08-31T06:32:44.358Z,99.99
2016-08-31T06:33:44.336Z,99.99
2016-08-31T06:34:44.328Z,99.99
2016-08-31T06:35:44.320Z,99.99
2016-08-31T06:36:44.350Z,99.99
2016-08-31T06:37:44.332Z,99.99
2016-08-31T06:38:44.343Z,99.99
2016-08-31T06:39:44.336Z,99.99
2016-08-31T06:40:44.345Z,99.99
2016-08-31T06:41:44.331Z,99.99
2016-08-31T06:42:44.350Z,99.99
2016-08-31T06:43:44.406Z,99.99
2016-08-31T06:44:44.358Z,99.99
2016-08-31T06:45:44.391Z,99.99
2016-08-31T06:46:44.363Z,99.99
2016-08-31T06:47:44.369Z,99.99
2016-08-31T06:48:44.364Z,99.99
2016-08-31T06:49:44.344Z,99.99
2016-08-31T06:50:44.349Z,99.99
2016-08-31T06:51:44.357Z,99.99
2016-08-31T06:52:44.347Z,99.99
2016-08-31T06:53:44.347Z,99.99
2016-08-31T06:54:44.349Z,99.99
2016-08-31T06:55:44.352Z,99.99
2016-08-31T06:56:44.403Z,99.99
2016-08-31T06:57:44.350Z,99.99
2016-08-31T06:58:44.346Z,99.99
2016-08-31T06:59:44.452Z,99.99
2016-08-31T07:00:44.371Z,99.99
2016-08-31T07:01:44.347Z,99.99
2016-08-31T07:02:44.370Z,99.99
2016-08-31T07:03:44.357Z,99.99
2016-08-31T07:04:44.363Z,99.99
2016-08-31T07:05:44.358Z,99.99
2016-08-31T07:06:44.445Z,99.99
2016-08-31T07:07:44.362Z,99.99
2016-08-31T07:08:44.391Z,99.99
2016-08-31T07:09:44.376Z,99.99
2016-08-31T07:10:44.362Z,99.99
2016-08-31T07:11:44.369Z,99.99
2016-08-31T07:12:44.376Z,99.99
2016-08-31T07:13:44.386Z,99.99
2016-08-31T07:14:44.378Z,99.99
2016-08-31T07:15:44.391Z,99.99
2016-08-31T07:16:44.364Z,99.99
2016-08-31T07:17:44.377Z,99.99
2016-08-31T07:18:44.384Z,99.99
2016-08-31T07:19:44.359Z,99.99
2016-08-31T07:20:44.399Z,99.99
2016-08-31T07:21:44.377Z,99.99
2016-08-31T07:22:44.383Z,98.47
2016-08-31T07:23:44.386Z,97.42
2016-08-31T07:24:44.379Z,97.8
2016-08-31T07:25:44.397Z,97.8
2016-08-31T07:26:44.380Z,98.05
2016-08-31T07:27:44.397Z,96.22
2016-08-31T07:28:44.377Z,94.21
2016-08-31T07:29:44.384Z,94.89
2016-08-31T07:30:44.394Z,95.75
2016-08-31T07:31:44.387Z,94.02
2016-08-31T07:32:44.393Z,94.31
2016-08-31T07:33:44.458Z,93.26
2016-08-31T07:34:44.393Z,93.26
2016-08-31T07:35:44.601Z,93.4
2016-08-31T07:36:44.398Z,93.78
2016-08-31T07:37:44.397Z,93.68
2016-08-31T07:38:44.397Z,93.88
2016-08-31T07:39:44.408Z,93.3
2016-08-31T07:40:44.414Z,90.9
2016-08-31T07:41:44.392Z,89.27
2016-08-31T07:42:44.395Z,89.65
2016-08-31T07:43:44.424Z,90.71
2016-08-31T07:44:44.409Z,91.33
2016-08-31T07:45:44.402Z,91.14
2016-08-31T07:46:44.411Z,91.24
2016-08-31T07:47:44.439Z,87.88
2016-08-31T07:48:44.423Z,88.93
2016-08-31T07:49:44.398Z,87.98
2016-08-31T07:50:44.923Z,88.26
2016-08-31T07:51:44.437Z,88.55
2016-08-31T07:52:44.409Z,88.17
2016-08-31T07:53:44.407Z,87.63
2016-08-31T07:54:44.410Z,86.77
2016-08-31T07:55:44.428Z,86.19
2016-08-31T07:56:44.428Z,86.29
2016-08-31T07:57:44.417Z,86.19
2016-08-31T07:58:44.439Z,84.56
2016-08-31T07:59:44.418Z,83.22
2016-08-31T08:00:44.427Z,84.22
2016-08-31T08:01:44.418Z,84.6
2016-08-31T08:02:44.509Z,85.08
2016-08-31T08:03:44.485Z,84.6
2016-08-31T08:04:44.519Z,83.16
2016-08-31T08:05:45.229Z,83.36
2016-08-31T08:06:44.502Z,81.15
2016-08-31T08:07:45.389Z,81.92
2016-08-31T08:08:44.619Z,81.72
2016-08-31T08:09:44.408Z,79.65
2016-08-31T08:10:44.449Z,80.8
2016-08-31T08:11:44.447Z,79.36
2016-08-31T08:13:07.379Z,78.88
2016-08-31T08:13:44.447Z,78.59
2016-08-31T08:15:03.959Z,77.83
2016-08-31T08:15:44.460Z,77.38
2016-08-31T08:16:48.886Z,77.09
2016-08-31T08:18:09.244Z,78.25
2016-08-31T08:19:33.590Z,77
2016-08-31T08:20:58.561Z,77.48
2016-08-31T08:22:22.494Z,77.67
2016-08-31T08:23:46.245Z,77.38
2016-08-31T08:25:08.925Z,77.13
2016-08-31T08:26:32.412Z,77.19
2016-08-31T08:27:55.598Z,76.9
2016-08-31T08:29:18.478Z,76.65
2016-08-31T08:30:41.803Z,76.46
2016-08-31T08:32:03.666Z,76.07
2016-08-31T08:33:05.046Z,75.98
2016-08-31T08:34:20.193Z,75.21
2016-08-31T08:35:38.663Z,75.11
2016-08-31T08:36:56.383Z,75.59
2016-08-31T08:37:44.701Z,74.92
2016-08-31T08:38:37.856Z,74.19
2016-08-31T08:39:37.847Z,74.29
2016-08-31T08:40:37.877Z,74.48
2016-08-31T08:41:37.865Z,75.34
2016-08-31T08:42:37.882Z,75.05
2016-08-31T08:43:37.884Z,74.67
2016-08-31T08:44:37.972Z,75.15
2016-08-31T08:45:37.831Z,74.38
2016-08-31T08:46:37.862Z,74.48
2016-08-31T08:47:37.827Z,73.51
2016-08-31T08:48:37.866Z,72.94
2016-08-31T08:49:37.843Z,73.22
2016-08-31T08:50:37.849Z,73.32
2016-08-31T08:51:37.843Z,74.86
2016-08-31T08:52:37.862Z,74.57
2016-08-31T08:53:37.856Z,75.19
2016-08-31T08:54:37.870Z,74.51
2016-08-31T08:55:37.857Z,73.46
2016-08-31T08:56:37.852Z,71.62
2016-08-31T08:57:37.855Z,72.01
2016-08-31T08:58:37.859Z,71.24
2016-08-31T08:59:37.866Z,72.01
2016-08-31T09:00:37.874Z,70.56
2016-08-31T09:01:37.842Z,70.28
2016-08-31T09:02:37.875Z,70.76
2016-08-31T09:03:37.843Z,70.86
2016-08-31T09:04:37.878Z,70.6
2016-08-31T09:05:37.870Z,70.56
2016-08-31T09:06:37.866Z,70.5
2016-08-31T09:07:37.897Z,69.64
2016-08-31T09:08:37.890Z,70.79
2016-08-31T09:09:37.862Z,70.21
2016-08-31T09:10:37.871Z,69.35
2016-08-31T09:11:37.875Z,69.35
2016-08-31T09:12:37.891Z,69.35
2016-08-31T09:13:37.857Z,69.25
2016-08-31T09:14:37.869Z,69.29
2016-08-31T09:15:37.874Z,69.73
2016-08-31T09:16:37.878Z,69.93
2016-08-31T09:17:37.856Z,70.73
2016-08-31T09:18:37.878Z,70.25
2016-08-31T09:19:37.879Z,69.77
2016-08-31T09:20:37.863Z,68.8
2016-08-31T09:21:37.872Z,69.67
2016-08-31T09:22:37.874Z,69.87
2016-08-31T09:23:37.875Z,70.06
2016-08-31T09:24:37.990Z,69.29
2016-08-31T09:25:37.893Z,70.06
2016-08-31T09:26:37.904Z,67.74
2016-08-31T09:27:37.994Z,68.26
2016-08-31T09:28:37.912Z,68.16
2016-08-31T09:29:37.889Z,67.49
2016-08-31T09:30:37.895Z,67.3
2016-08-31T09:31:37.892Z,67.2
2016-08-31T09:32:37.909Z,66.33
2016-08-31T09:33:37.897Z,66.82
2016-08-31T09:34:37.889Z,67.88
2016-08-31T09:35:37.892Z,68.07
2016-08-31T09:36:37.899Z,67.1
2016-08-31T09:37:37.938Z,67.88
2016-08-31T09:38:37.889Z,66.94
2016-08-31T09:39:37.887Z,66.46
2016-08-31T09:40:38.107Z,66.08
2016-08-31T09:41:37.909Z,65.4
2016-08-31T09:42:37.920Z,65.3
2016-08-31T09:43:37.909Z,65.98
2016-08-31T09:44:37.913Z,66.36
2016-08-31T09:45:38.155Z,66.36
2016-08-31T09:46:37.907Z,66.75
2016-08-31T09:47:38.138Z,67.52
2016-08-31T09:48:37.915Z,67.23
2016-08-31T09:49:37.939Z,67.65
2016-08-31T09:50:37.911Z,66.75
2016-08-31T09:51:37.913Z,66.49
2016-08-31T09:52:37.907Z,67.65
2016-08-31T09:53:37.911Z,66.69
2016-08-31T09:54:37.919Z,65.53
2016-08-31T09:55:37.926Z,65.24
2016-08-31T09:56:37.944Z,64.76
2016-08-31T09:57:37.956Z,64.66
2016-08-31T09:58:37.925Z,64.18
2016-08-31T09:59:37.926Z,63.98
2016-08-31T10:00:37.943Z,63.79
2016-08-31T10:01:37.894Z,63.79
2016-08-31T10:02:37.946Z,64.11
2016-08-31T10:03:37.907Z,63.98
2016-08-31T10:04:37.919Z,63.43
2016-08-31T10:05:38.003Z,63.63
2016-08-31T10:06:37.945Z,63.34
2016-08-31T10:07:37.926Z,63.53
2016-08-31T10:08:37.970Z,62.37
2016-08-31T10:09:37.905Z,60.25
2016-08-31T10:10:37.910Z,60.64
2016-08-31T10:11:37.947Z,61.34
2016-08-31T10:12:38.220Z,61.22
2016-08-31T10:13:37.917Z,61.99
2016-08-31T10:14:37.965Z,60.38
2016-08-31T10:15:38.060Z,59.89
2016-08-31T10:16:37.923Z,59.6
2016-08-31T10:17:37.939Z,58.45
2016-08-31T10:18:37.930Z,58.45
2016-08-31T10:19:37.929Z,59.8
2016-08-31T10:20:37.960Z,59.51
2016-08-31T10:21:39.191Z,58.83
2016-08-31T10:22:37.938Z,58.83
2016-08-31T10:23:38.497Z,59.6
2016-08-31T10:24:38.648Z,58.57
2016-08-31T10:25:37.950Z,58.73
2016-08-31T10:26:37.975Z,59.99
2016-08-31T10:27:38.042Z,59.92
2016-08-31T10:28:38.417Z,59.05
2016-08-31T10:29:37.969Z,58.93
2016-08-31T10:30:38.019Z,57.12
2016-08-31T10:31:38.333Z,56.63
2016-08-31T10:32:37.937Z,57.21
2016-08-31T10:33:38.091Z,56.95
2016-08-31T10:34:38.089Z,56.83
2016-08-31T10:35:39.109Z,58.02
2016-08-31T10:36:37.953Z,58.6
2016-08-31T10:37:39.052Z,58.5
2016-08-31T10:38:37.966Z,57.92
2016-08-31T10:39:37.953Z,57.24
2016-08-31T10:40:37.978Z,56.67
2016-08-31T10:41:37.966Z,57.05
2016-08-31T10:42:37.990Z,56.37
2016-08-31T10:43:37.982Z,57.24
2016-08-31T10:44:37.959Z,56.86
2016-08-31T10:45:37.974Z,54.93
2016-08-31T10:46:38.014Z,54.44
2016-08-31T10:47:37.964Z,54.15
2016-08-31T10:48:37.973Z,54.35
2016-08-31T10:49:37.968Z,55.89
2016-08-31T10:50:38.558Z,55.6
2016-08-31T10:51:37.972Z,57.54
2016-08-31T10:52:37.979Z,56.95
2016-08-31T10:53:37.972Z,55.82
2016-08-31T10:54:37.999Z,56.3
2016-08-31T10:55:37.958Z,57.18
2016-08-31T10:56:37.993Z,56.98
2016-08-31T10:57:38.047Z,56.79
2016-08-31T10:58:37.992Z,55.53
2016-08-31T10:59:37.971Z,56.21
2016-08-31T11:00:37.989Z,56.5
2016-08-31T11:01:37.985Z,56.21
2016-08-31T11:02:37.987Z,57.08
2016-08-31T11:03:37.970Z,57.08
2016-08-31T11:04:37.983Z,57.18
2016-08-31T11:05:38.034Z,57.01
2016-08-31T11:06:38.001Z,57.08
2016-08-31T11:07:38.421Z,57.28
2016-08-31T11:08:37.994Z,57.18
2016-08-31T11:09:38.005Z,57.3
2016-08-31T11:10:37.986Z,57.69
2016-08-31T11:11:38.004Z,56.92
2016-08-31T11:12:37.999Z,57.5
2016-08-31T11:13:48.398Z,56.92
2016-08-31T11:14:57.754Z,53.81
2016-08-31T11:16:12.457Z,54.59
2016-08-31T11:17:29.821Z,55.46
2016-08-31T11:18:46.405Z,54.3
2016-08-31T11:20:01.044Z,53.81
2016-08-31T11:21:08.355Z,54.39
2016-08-31T11:22:25.186Z,55.85
2016-08-31T11:23:37.156Z,55.17
2016-08-31T11:24:23.966Z,55.17
2016-08-31T11:25:23.023Z,55.94
2016-08-31T11:26:23.016Z,55.27
2016-08-31T11:27:23.061Z,55
2016-08-31T11:28:23.032Z,55
2016-08-31T11:29:23.032Z,55.3
2016-08-31T11:30:23.239Z,55.1
2016-08-31T11:31:23.055Z,54.91
2016-08-31T11:32:23.393Z,54.71
2016-08-31T11:33:23.021Z,54.13
2016-08-31T11:34:23.028Z,55.2
2016-08-31T11:35:23.579Z,54.23
2016-08-31T11:36:23.062Z,52.39
2016-08-31T11:37:23.492Z,52.97
2016-08-31T11:38:23.018Z,53.75
2016-08-31T11:39:23.032Z,53.75
2016-08-31T11:40:23.307Z,54.33
2016-08-31T11:41:23.096Z,54.43
2016-08-31T11:42:24.235Z,55.1
2016-08-31T11:43:23.053Z,53.94
2016-08-31T11:44:23.294Z,53.65
2016-08-31T11:45:23.049Z,53.77
2016-08-31T11:46:23.044Z,54.71
2016-08-31T11:47:23.052Z,56
2016-08-31T11:48:23.045Z,54.26
2016-08-31T11:49:23.259Z,54.55
2016-08-31T11:50:23.063Z,54.84
2016-08-31T11:51:23.063Z,54.84
2016-08-31T11:52:23.558Z,55.32
2016-08-31T11:53:23.047Z,53.87
2016-08-31T11:54:23.563Z,54.35
2016-08-31T11:55:23.047Z,53.58
2016-08-31T11:56:23.037Z,54.35
2016-08-31T11:57:23.069Z,53.19
2016-08-31T11:58:23.049Z,53.49
2016-08-31T11:59:23.153Z,53.77
2016-08-31T12:00:23.078Z,54.06
2016-08-31T12:01:23.816Z,54.94
2016-08-31T12:02:23.046Z,54.06
2016-08-31T12:03:23.067Z,54.45
2016-08-31T12:04:23.078Z,53.77
2016-08-31T12:05:23.068Z,53.58
2016-08-31T12:06:23.063Z,53.09
2016-08-31T12:07:23.173Z,54.84
2016-08-31T12:08:23.061Z,55.54
2016-08-31T12:09:23.062Z,53.61
2016-08-31T12:10:23.208Z,54.28
2016-08-31T12:11:23.081Z,53.8
2016-08-31T12:12:23.161Z,54.16
2016-08-31T12:13:23.110Z,52.06
2016-08-31T12:14:23.070Z,52.93
2016-08-31T12:15:23.077Z,53.41
2016-08-31T12:16:23.204Z,54.58
2016-08-31T12:17:23.075Z,54.48
2016-08-31T12:18:23.083Z,54.28
2016-08-31T12:19:23.088Z,54.86
2016-08-31T12:20:23.081Z,53.51
2016-08-31T12:21:23.120Z,52.93
2016-08-31T12:22:23.076Z,52.83
2016-08-31T12:23:23.099Z,52.54
2016-08-31T12:24:23.127Z,53.22
2016-08-31T12:25:23.113Z,53.12
2016-08-31T12:26:23.142Z,52.83
2016-08-31T12:27:23.380Z,51.86
2016-08-31T12:28:23.101Z,51.86
2016-08-31T12:29:23.093Z,52.64
2016-08-31T12:30:23.107Z,52.06
2016-08-31T12:31:23.100Z,52.44
2016-08-31T12:32:23.109Z,52.93
2016-08-31T12:33:23.106Z,53.51
2016-08-31T12:34:23.102Z,52.64
2016-08-31T12:35:23.099Z,51.76
2016-08-31T12:36:23.115Z,52.54
2016-08-31T12:37:23.103Z,53.7
2016-08-31T12:38:23.110Z,53.7
2016-08-31T12:39:23.113Z,53.8
2016-08-31T12:40:23.131Z,53.7
2016-08-31T12:41:23.099Z,53.12
2016-08-31T12:42:23.101Z,52.64
2016-08-31T12:43:23.156Z,52.28
2016-08-31T12:44:23.489Z,53.7
2016-08-31T12:45:23.850Z,53.8
2016-08-31T12:46:23.315Z,52.54
2016-08-31T12:47:23.111Z,51.28
2016-08-31T12:48:23.114Z,52.06
2016-08-31T12:49:23.139Z,52.93
2016-08-31T12:50:23.270Z,53.05
2016-08-31T12:51:23.134Z,52.95
2016-08-31T12:52:23.131Z,52.93
2016-08-31T12:53:23.163Z,51.79
2016-08-31T12:54:28.951Z,51.09
2016-08-31T12:56:28.963Z,52.47
2016-08-31T12:57:23.149Z,51.31
2016-08-31T12:58:23.127Z,52.28
2016-08-31T12:59:23.134Z,52.37
2016-08-31T13:00:23.159Z,52.86
2016-08-31T13:01:23.131Z,52.86
2016-08-31T13:02:23.268Z,53.53